sensor_id;sensor_type;location;lat;lon;timestamp;P1;durP1;ratioP1;P2;durP2;ratioP2
62024;SDS011;47978;49.118;12.146;2022-08-04T00:01:28;3.03;;;1.60;;
62024;SDS011;47978;49.118;12.146;2022-08-04T00:04:00;3.78;;;1.67;;
62024;SDS011;47978;49.118;12.146;2022-08-04T00:06:31;3.97;;;1.75;;
62024;SDS011;47978;49.118;12.146;2022-08-04T00:09:09;3.90;;;1.70;;
62024;SDS011;47978;49.118;12.146;2022-08-04T00:11:43;2.20;;;1.60;;
62024;SDS011;47978;49.118;12.146;2022-08-04T00:14:12;2.80;;;1.65;;
62024;SDS011;47978;49.118;12.146;2022-08-04T00:16:40;3.75;;;1.85;;
62024;SDS011;47978;49.118;12.146;2022-08-04T00:19:09;9.18;;;1.90;;
62024;SDS011;47978;49.118;12.146;2022-08-04T00:21:38;3.33;;;1.88;;
62024;SDS011;47978;49.118;12.146;2022-08-04T00:24:09;2.63;;;1.92;;
62024;SDS011;47978;49.118;12.146;2022-08-04T00:26:38;3.85;;;1.95;;
62024;SDS011;47978;49.118;12.146;2022-08-04T00:29:05;3.65;;;1.90;;
62024;SDS011;47978;49.118;12.146;2022-08-04T00:31:31;3.08;;;1.63;;
62024;SDS011;47978;49.118;12.146;2022-08-04T00:34:19;4.85;;;1.70;;
62024;SDS011;47978;49.118;12.146;2022-08-04T00:36:46;3.00;;;1.95;;
62024;SDS011;47978;49.118;12.146;2022-08-04T00:39:14;2.10;;;1.50;;
62024;SDS011;47978;49.118;12.146;2022-08-04T00:41:48;2.50;;;1.80;;
62024;SDS011;47978;49.118;12.146;2022-08-04T00:44:25;2.42;;;1.75;;
62024;SDS011;47978;49.118;12.146;2022-08-04T00:47:03;2.85;;;1.90;;
62024;SDS011;47978;49.118;12.146;2022-08-04T00:49:42;2.67;;;1.80;;
62024;SDS011;47978;49.118;12.146;2022-08-04T00:52:25;2.42;;;1.90;;
62024;SDS011;47978;49.118;12.146;2022-08-04T00:55:15;2.05;;;1.67;;
62024;SDS011;47978;49.118;12.146;2022-08-04T01:00:32;3.42;;;1.70;;
62024;SDS011;47978;49.118;12.146;2022-08-04T01:03:11;4.22;;;1.90;;
62024;SDS011;47978;49.118;12.146;2022-08-04T01:05:46;3.78;;;1.70;;
62024;SDS011;47978;49.118;12.146;2022-08-04T01:08:29;3.05;;;1.60;;
62024;SDS011;47978;49.118;12.146;2022-08-04T01:11:21;4.00;;;1.98;;
62024;SDS011;47978;49.118;12.146;2022-08-04T01:16:51;2.00;;;1.73;;
62024;SDS011;47978;49.118;12.146;2022-08-04T01:22:17;2.30;;;1.80;;
62024;SDS011;47978;49.118;12.146;2022-08-04T01:25:09;3.97;;;2.20;;
62024;SDS011;47978;49.118;12.146;2022-08-04T01:28:08;2.60;;;1.73;;
62024;SDS011;47978;49.118;12.146;2022-08-04T01:30:52;3.88;;;2.28;;
62024;SDS011;47978;49.118;12.146;2022-08-04T01:33:23;2.28;;;1.75;;
62024;SDS011;47978;49.118;12.146;2022-08-04T01:35:54;2.60;;;1.88;;
62024;SDS011;47978;49.118;12.146;2022-08-04T01:38:23;3.85;;;1.80;;
62024;SDS011;47978;49.118;12.146;2022-08-04T01:40:54;3.15;;;2.20;;
62024;SDS011;47978;49.118;12.146;2022-08-04T01:43:23;2.63;;;2.00;;
62024;SDS011;47978;49.118;12.146;2022-08-04T01:45:50;2.75;;;2.10;;
62024;SDS011;47978;49.118;12.146;2022-08-04T01:48:26;4.10;;;2.10;;
62024;SDS011;47978;49.118;12.146;2022-08-04T01:50:55;3.00;;;2.05;;
62024;SDS011;47978;49.118;12.146;2022-08-04T01:53:24;2.67;;;2.00;;
62024;SDS011;47978;49.118;12.146;2022-08-04T01:55:56;3.00;;;2.20;;
62024;SDS011;47978;49.118;12.146;2022-08-04T01:58:23;3.65;;;2.08;;
62024;SDS011;47978;49.118;12.146;2022-08-04T02:00:56;3.42;;;1.85;;
62024;SDS011;47978;49.118;12.146;2022-08-04T02:03:24;3.88;;;2.03;;
62024;SDS011;47978;49.118;12.146;2022-08-04T02:06:15;4.03;;;1.85;;
62024;SDS011;47978;49.118;12.146;2022-08-04T02:08:49;2.63;;;1.98;;
62024;SDS011;47978;49.118;12.146;2022-08-04T02:11:23;5.28;;;2.20;;
62024;SDS011;47978;49.118;12.146;2022-08-04T02:13:53;3.25;;;2.08;;
62024;SDS011;47978;49.118;12.146;2022-08-04T02:16:28;3.03;;;1.88;;
62024;SDS011;47978;49.118;12.146;2022-08-04T02:19:03;4.07;;;2.10;;
62024;SDS011;47978;49.118;12.146;2022-08-04T02:21:40;3.80;;;2.33;;
62024;SDS011;47978;49.118;12.146;2022-08-04T02:24:09;4.32;;;2.20;;
62024;SDS011;47978;49.118;12.146;2022-08-04T02:26:40;3.60;;;2.00;;
62024;SDS011;47978;49.118;12.146;2022-08-04T02:29:09;2.67;;;1.90;;
62024;SDS011;47978;49.118;12.146;2022-08-04T02:31:45;3.25;;;2.35;;
62024;SDS011;47978;49.118;12.146;2022-08-04T02:34:15;2.83;;;2.13;;
62024;SDS011;47978;49.118;12.146;2022-08-04T02:36:44;3.40;;;2.30;;
62024;SDS011;47978;49.118;12.146;2022-08-04T02:39:13;4.05;;;2.20;;
62024;SDS011;47978;49.118;12.146;2022-08-04T02:41:45;2.83;;;2.28;;
62024;SDS011;47978;49.118;12.146;2022-08-04T02:44:12;3.38;;;2.20;;
62024;SDS011;47978;49.118;12.146;2022-08-04T02:46:46;5.20;;;2.38;;
62024;SDS011;47978;49.118;12.146;2022-08-04T02:49:16;4.63;;;2.28;;
62024;SDS011;47978;49.118;12.146;2022-08-04T02:51:44;3.10;;;2.30;;
62024;SDS011;47978;49.118;12.146;2022-08-04T02:54:16;3.87;;;2.20;;
62024;SDS011;47978;49.118;12.146;2022-08-04T02:56:59;2.35;;;1.95;;
62024;SDS011;47978;49.118;12.146;2022-08-04T02:59:29;3.00;;;2.30;;
62024;SDS011;47978;49.118;12.146;2022-08-04T03:02:14;4.30;;;2.65;;
62024;SDS011;47978;49.118;12.146;2022-08-04T03:04:46;5.28;;;2.15;;
62024;SDS011;47978;49.118;12.146;2022-08-04T03:16:34;6.28;;;2.75;;
62024;SDS011;47978;49.118;12.146;2022-08-04T03:22:39;3.13;;;2.20;;
62024;SDS011;47978;49.118;12.146;2022-08-04T03:29:11;6.95;;;5.50;;
62024;SDS011;47978;49.118;12.146;2022-08-04T03:32:13;7.45;;;4.05;;
62024;SDS011;47978;49.118;12.146;2022-08-04T03:34:57;3.55;;;3.22;;
62024;SDS011;47978;49.118;12.146;2022-08-04T03:40:58;5.57;;;2.60;;
62024;SDS011;47978;49.118;12.146;2022-08-04T03:43:36;4.05;;;2.22;;
62024;SDS011;47978;49.118;12.146;2022-08-04T03:46:34;3.17;;;2.55;;
62024;SDS011;47978;49.118;12.146;2022-08-04T03:49:23;4.32;;;2.47;;
62024;SDS011;47978;49.118;12.146;2022-08-04T03:52:12;4.13;;;3.00;;
62024;SDS011;47978;49.118;12.146;2022-08-04T03:55:13;3.50;;;2.90;;
62024;SDS011;47978;49.118;12.146;2022-08-04T04:01:11;6.38;;;2.78;;
62024;SDS011;47978;49.118;12.146;2022-08-04T04:04:21;2.90;;;2.60;;
62024;SDS011;47978;49.118;12.146;2022-08-04T04:07:21;4.53;;;2.70;;
62024;SDS011;47978;49.118;12.146;2022-08-04T04:10:03;4.57;;;2.58;;
62024;SDS011;47978;49.118;12.146;2022-08-04T04:16:13;4.20;;;2.90;;
62024;SDS011;47978;49.118;12.146;2022-08-04T04:18:53;3.55;;;2.95;;
62024;SDS011;47978;49.118;12.146;2022-08-04T04:21:44;3.03;;;2.72;;
62024;SDS011;47978;49.118;12.146;2022-08-04T04:24:32;4.28;;;2.83;;
62024;SDS011;47978;49.118;12.146;2022-08-04T04:27:17;4.20;;;2.80;;
62024;SDS011;47978;49.118;12.146;2022-08-04T04:30:05;7.78;;;2.97;;
62024;SDS011;47978;49.118;12.146;2022-08-04T04:32:35;5.00;;;2.33;;
62024;SDS011;47978;49.118;12.146;2022-08-04T04:35:22;3.72;;;2.78;;
62024;SDS011;47978;49.118;12.146;2022-08-04T04:41:03;3.22;;;2.67;;
62024;SDS011;47978;49.118;12.146;2022-08-04T04:43:46;5.15;;;2.63;;
62024;SDS011;47978;49.118;12.146;2022-08-04T04:46:37;3.75;;;2.90;;
62024;SDS011;47978;49.118;12.146;2022-08-04T04:49:11;3.60;;;2.80;;
62024;SDS011;47978;49.118;12.146;2022-08-04T04:51:47;3.47;;;2.70;;
62024;SDS011;47978;49.118;12.146;2022-08-04T04:54:20;3.28;;;2.60;;
62024;SDS011;47978;49.118;12.146;2022-08-04T04:56:58;3.17;;;2.88;;
62024;SDS011;47978;49.118;12.146;2022-08-04T04:59:33;3.47;;;2.90;;
62024;SDS011;47978;49.118;12.146;2022-08-04T05:02:09;4.80;;;2.92;;
62024;SDS011;47978;49.118;12.146;2022-08-04T05:04:59;6.07;;;2.78;;
62024;SDS011;47978;49.118;12.146;2022-08-04T05:11:10;3.72;;;3.03;;
62024;SDS011;47978;49.118;12.146;2022-08-04T05:13:49;3.30;;;2.95;;
62024;SDS011;47978;49.118;12.146;2022-08-04T05:16:41;3.30;;;2.88;;
62024;SDS011;47978;49.118;12.146;2022-08-04T05:19:16;5.22;;;3.33;;
62024;SDS011;47978;49.118;12.146;2022-08-04T05:21:50;3.83;;;3.15;;
62024;SDS011;47978;49.118;12.146;2022-08-04T05:24:22;4.22;;;2.83;;
62024;SDS011;47978;49.118;12.146;2022-08-04T05:26:51;4.10;;;2.95;;
62024;SDS011;47978;49.118;12.146;2022-08-04T05:29:23;7.30;;;3.60;;
62024;SDS011;47978;49.118;12.146;2022-08-04T05:31:58;5.75;;;3.40;;
62024;SDS011;47978;49.118;12.146;2022-08-04T05:34:28;4.90;;;3.00;;
62024;SDS011;47978;49.118;12.146;2022-08-04T05:36:59;3.95;;;2.22;;
62024;SDS011;47978;49.118;12.146;2022-08-04T05:39:29;3.42;;;2.50;;
62024;SDS011;47978;49.118;12.146;2022-08-04T05:42:01;6.13;;;3.00;;
62024;SDS011;47978;49.118;12.146;2022-08-04T05:44:32;3.13;;;2.10;;
62024;SDS011;47978;49.118;12.146;2022-08-04T05:47:01;3.35;;;2.42;;
62024;SDS011;47978;49.118;12.146;2022-08-04T05:49:29;5.00;;;2.97;;
62024;SDS011;47978;49.118;12.146;2022-08-04T05:51:57;3.90;;;2.80;;
62024;SDS011;47978;49.118;12.146;2022-08-04T05:54:26;6.72;;;3.28;;
62024;SDS011;47978;49.118;12.146;2022-08-04T05:56:53;2.80;;;2.50;;
62024;SDS011;47978;49.118;12.146;2022-08-04T05:59:22;5.05;;;2.70;;
62024;SDS011;47978;49.118;12.146;2022-08-04T06:01:50;6.47;;;2.83;;
62024;SDS011;47978;49.118;12.146;2022-08-04T06:04:25;5.75;;;3.00;;
62024;SDS011;47978;49.118;12.146;2022-08-04T06:07:00;4.53;;;3.30;;
62024;SDS011;47978;49.118;12.146;2022-08-04T06:09:26;3.90;;;2.72;;
62024;SDS011;47978;49.118;12.146;2022-08-04T06:11:53;6.18;;;2.88;;
62024;SDS011;47978;49.118;12.146;2022-08-04T06:14:31;3.78;;;2.53;;
62024;SDS011;47978;49.118;12.146;2022-08-04T06:17:02;5.68;;;2.45;;
62024;SDS011;47978;49.118;12.146;2022-08-04T06:19:52;3.63;;;2.55;;
62024;SDS011;47978;49.118;12.146;2022-08-04T06:22:31;7.72;;;3.20;;
62024;SDS011;47978;49.118;12.146;2022-08-04T06:24:59;5.38;;;2.80;;
62024;SDS011;47978;49.118;12.146;2022-08-04T06:27:27;6.15;;;3.00;;
62024;SDS011;47978;49.118;12.146;2022-08-04T06:29:55;8.00;;;3.40;;
62024;SDS011;47978;49.118;12.146;2022-08-04T06:32:24;6.93;;;3.53;;
62024;SDS011;47978;49.118;12.146;2022-08-04T06:35:03;7.53;;;3.10;;
62024;SDS011;47978;49.118;12.146;2022-08-04T06:37:33;7.28;;;3.47;;
62024;SDS011;47978;49.118;12.146;2022-08-04T06:40:09;6.97;;;3.13;;
62024;SDS011;47978;49.118;12.146;2022-08-04T06:42:57;6.57;;;3.80;;
62024;SDS011;47978;49.118;12.146;2022-08-04T06:45:25;3.47;;;3.10;;
62024;SDS011;47978;49.118;12.146;2022-08-04T06:47:53;3.63;;;3.00;;
62024;SDS011;47978;49.118;12.146;2022-08-04T06:50:23;7.80;;;2.92;;
62024;SDS011;47978;49.118;12.146;2022-08-04T06:53:10;6.57;;;3.15;;
62024;SDS011;47978;49.118;12.146;2022-08-04T06:55:37;7.78;;;3.05;;
62024;SDS011;47978;49.118;12.146;2022-08-04T06:58:05;8.27;;;3.22;;
62024;SDS011;47978;49.118;12.146;2022-08-04T07:00:33;4.75;;;3.05;;
62024;SDS011;47978;49.118;12.146;2022-08-04T07:03:01;7.00;;;3.38;;
62024;SDS011;47978;49.118;12.146;2022-08-04T07:05:30;7.45;;;3.10;;
62024;SDS011;47978;49.118;12.146;2022-08-04T07:07:57;8.35;;;3.40;;
62024;SDS011;47978;49.118;12.146;2022-08-04T07:10:24;5.38;;;3.35;;
62024;SDS011;47978;49.118;12.146;2022-08-04T07:12:52;5.75;;;3.40;;
62024;SDS011;47978;49.118;12.146;2022-08-04T07:15:19;7.30;;;3.60;;
62024;SDS011;47978;49.118;12.146;2022-08-04T07:17:47;4.22;;;3.67;;
62024;SDS011;47978;49.118;12.146;2022-08-04T07:20:17;5.55;;;3.40;;
62024;SDS011;47978;49.118;12.146;2022-08-04T07:23:02;6.13;;;3.40;;
62024;SDS011;47978;49.118;12.146;2022-08-04T07:25:29;6.10;;;3.83;;
62024;SDS011;47978;49.118;12.146;2022-08-04T07:28:17;4.55;;;3.58;;
62024;SDS011;47978;49.118;12.146;2022-08-04T07:30:44;3.75;;;3.35;;
62024;SDS011;47978;49.118;12.146;2022-08-04T07:33:13;7.03;;;3.22;;
62024;SDS011;47978;49.118;12.146;2022-08-04T07:35:41;3.83;;;2.85;;
62024;SDS011;47978;49.118;12.146;2022-08-04T07:38:30;5.72;;;3.13;;
62024;SDS011;47978;49.118;12.146;2022-08-04T07:40:57;3.45;;;2.63;;
62024;SDS011;47978;49.118;12.146;2022-08-04T07:43:24;5.78;;;3.10;;
62024;SDS011;47978;49.118;12.146;2022-08-04T07:45:51;5.63;;;3.40;;
62024;SDS011;47978;49.118;12.146;2022-08-04T07:48:18;4.97;;;3.15;;
62024;SDS011;47978;49.118;12.146;2022-08-04T07:50:44;5.03;;;2.80;;
62024;SDS011;47978;49.118;12.146;2022-08-04T07:53:12;6.03;;;3.10;;
62024;SDS011;47978;49.118;12.146;2022-08-04T07:56:01;5.72;;;3.15;;
62024;SDS011;47978;49.118;12.146;2022-08-04T07:58:28;6.22;;;3.05;;
62024;SDS011;47978;49.118;12.146;2022-08-04T08:00:55;7.68;;;3.10;;
62024;SDS011;47978;49.118;12.146;2022-08-04T08:03:22;3.88;;;3.10;;
62024;SDS011;47978;49.118;12.146;2022-08-04T08:05:50;6.18;;;2.90;;
62024;SDS011;47978;49.118;12.146;2022-08-04T08:08:37;7.40;;;2.95;;
62024;SDS011;47978;49.118;12.146;2022-08-04T08:11:05;14.93;;;3.28;;
62024;SDS011;47978;49.118;12.146;2022-08-04T08:13:32;7.22;;;3.00;;
62024;SDS011;47978;49.118;12.146;2022-08-04T08:15:59;6.43;;;2.80;;
62024;SDS011;47978;49.118;12.146;2022-08-04T08:18:26;6.75;;;2.80;;
62024;SDS011;47978;49.118;12.146;2022-08-04T08:20:53;5.32;;;2.67;;
62024;SDS011;47978;49.118;12.146;2022-08-04T08:23:20;3.45;;;2.80;;
62024;SDS011;47978;49.118;12.146;2022-08-04T08:25:47;4.20;;;2.40;;
62024;SDS011;47978;49.118;12.146;2022-08-04T08:28:16;3.58;;;2.30;;
62024;SDS011;47978;49.118;12.146;2022-08-04T08:30:43;3.40;;;2.50;;
62024;SDS011;47978;49.118;12.146;2022-08-04T08:33:11;3.75;;;2.38;;
62024;SDS011;47978;49.118;12.146;2022-08-04T08:35:42;4.25;;;2.38;;
62024;SDS011;47978;49.118;12.146;2022-08-04T08:38:23;3.58;;;2.70;;
62024;SDS011;47978;49.118;12.146;2022-08-04T08:41:05;4.30;;;2.50;;
62024;SDS011;47978;49.118;12.146;2022-08-04T08:43:50;5.05;;;2.63;;
62024;SDS011;47978;49.118;12.146;2022-08-04T08:46:53;4.85;;;2.85;;
62024;SDS011;47978;49.118;12.146;2022-08-04T08:49:45;4.55;;;2.42;;
62024;SDS011;47978;49.118;12.146;2022-08-04T08:52:36;5.85;;;2.42;;
62024;SDS011;47978;49.118;12.146;2022-08-04T08:55:28;3.45;;;2.60;;
62024;SDS011;47978;49.118;12.146;2022-08-04T08:58:22;4.00;;;2.22;;
62024;SDS011;47978;49.118;12.146;2022-08-04T09:01:04;3.00;;;2.20;;
62024;SDS011;47978;49.118;12.146;2022-08-04T09:03:50;3.38;;;2.40;;
62024;SDS011;47978;49.118;12.146;2022-08-04T09:06:49;3.25;;;2.58;;
62024;SDS011;47978;49.118;12.146;2022-08-04T09:09:29;5.05;;;2.13;;
62024;SDS011;47978;49.118;12.146;2022-08-04T09:12:14;2.78;;;2.30;;
62024;SDS011;47978;49.118;12.146;2022-08-04T09:14:53;3.00;;;2.28;;
62024;SDS011;47978;49.118;12.146;2022-08-04T09:17:28;3.08;;;2.63;;
62024;SDS011;47978;49.118;12.146;2022-08-04T09:20:00;5.57;;;3.20;;
62024;SDS011;47978;49.118;12.146;2022-08-04T09:22:32;16.33;;;2.83;;
62024;SDS011;47978;49.118;12.146;2022-08-04T09:25:06;3.88;;;2.58;;
62024;SDS011;47978;49.118;12.146;2022-08-04T09:27:39;3.47;;;2.30;;
62024;SDS011;47978;49.118;12.146;2022-08-04T09:30:11;5.80;;;2.55;;
62024;SDS011;47978;49.118;12.146;2022-08-04T09:32:43;4.97;;;2.88;;
62024;SDS011;47978;49.118;12.146;2022-08-04T09:35:21;4.38;;;2.70;;
62024;SDS011;47978;49.118;12.146;2022-08-04T09:37:55;7.25;;;3.33;;
62024;SDS011;47978;49.118;12.146;2022-08-04T09:40:27;6.55;;;2.72;;
62024;SDS011;47978;49.118;12.146;2022-08-04T09:43:27;3.63;;;2.33;;
62024;SDS011;47978;49.118;12.146;2022-08-04T09:46:20;3.20;;;2.47;;
62024;SDS011;47978;49.118;12.146;2022-08-04T09:48:52;4.57;;;2.40;;
62024;SDS011;47978;49.118;12.146;2022-08-04T09:51:23;6.85;;;2.50;;
62024;SDS011;47978;49.118;12.146;2022-08-04T09:54:22;5.15;;;2.55;;
62024;SDS011;47978;49.118;12.146;2022-08-04T09:56:57;3.33;;;2.53;;
62024;SDS011;47978;49.118;12.146;2022-08-04T09:59:34;5.25;;;2.58;;
62024;SDS011;47978;49.118;12.146;2022-08-04T10:02:08;8.40;;;2.53;;
62024;SDS011;47978;49.118;12.146;2022-08-04T10:04:41;5.18;;;2.80;;
62024;SDS011;47978;49.118;12.146;2022-08-04T10:07:14;4.32;;;2.25;;
62024;SDS011;47978;49.118;12.146;2022-08-04T10:10:02;4.05;;;2.00;;
62024;SDS011;47978;49.118;12.146;2022-08-04T10:12:42;4.88;;;2.15;;
62024;SDS011;47978;49.118;12.146;2022-08-04T10:15:39;4.03;;;2.30;;
62024;SDS011;47978;49.118;12.146;2022-08-04T10:18:20;7.25;;;2.30;;
62024;SDS011;47978;49.118;12.146;2022-08-04T10:20:56;2.88;;;2.20;;
62024;SDS011;47978;49.118;12.146;2022-08-04T10:23:41;3.15;;;2.13;;
62024;SDS011;47978;49.118;12.146;2022-08-04T10:26:26;6.07;;;2.35;;
62024;SDS011;47978;49.118;12.146;2022-08-04T10:28:59;3.83;;;3.05;;
62024;SDS011;47978;49.118;12.146;2022-08-04T10:31:32;2.97;;;2.03;;
62024;SDS011;47978;49.118;12.146;2022-08-04T10:34:02;3.73;;;2.40;;
62024;SDS011;47978;49.118;12.146;2022-08-04T10:36:38;3.10;;;2.00;;
62024;SDS011;47978;49.118;12.146;2022-08-04T10:39:13;2.90;;;2.42;;
62024;SDS011;47978;49.118;12.146;2022-08-04T10:42:05;4.75;;;2.00;;
62024;SDS011;47978;49.118;12.146;2022-08-04T10:44:46;4.45;;;2.75;;
62024;SDS011;47978;49.118;12.146;2022-08-04T10:47:23;3.05;;;2.10;;
62024;SDS011;47978;49.118;12.146;2022-08-04T10:49:58;5.25;;;2.20;;
62024;SDS011;47978;49.118;12.146;2022-08-04T10:52:30;3.30;;;2.08;;
62024;SDS011;47978;49.118;12.146;2022-08-04T10:55:02;3.38;;;2.20;;
62024;SDS011;47978;49.118;12.146;2022-08-04T10:57:38;4.35;;;2.05;;
62024;SDS011;47978;49.118;12.146;2022-08-04T11:00:07;3.67;;;2.30;;
62024;SDS011;47978;49.118;12.146;2022-08-04T11:02:36;2.92;;;1.77;;
62024;SDS011;47978;49.118;12.146;2022-08-04T11:05:11;3.25;;;2.03;;
62024;SDS011;47978;49.118;12.146;2022-08-04T11:07:46;2.58;;;1.88;;
62024;SDS011;47978;49.118;12.146;2022-08-04T11:10:19;3.25;;;1.80;;
62024;SDS011;47978;49.118;12.146;2022-08-04T11:12:53;2.63;;;1.90;;
62024;SDS011;47978;49.118;12.146;2022-08-04T11:15:24;3.60;;;1.80;;
62024;SDS011;47978;49.118;12.146;2022-08-04T11:17:55;1.98;;;1.77;;
62024;SDS011;47978;49.118;12.146;2022-08-04T11:20:26;4.15;;;1.80;;
62024;SDS011;47978;49.118;12.146;2022-08-04T11:23:05;10.50;;;2.65;;
62024;SDS011;47978;49.118;12.146;2022-08-04T11:25:35;4.25;;;1.92;;
62024;SDS011;47978;49.118;12.146;2022-08-04T11:28:18;3.78;;;1.75;;
62024;SDS011;47978;49.118;12.146;2022-08-04T11:30:50;2.80;;;1.95;;
62024;SDS011;47978;49.118;12.146;2022-08-04T11:33:25;2.45;;;1.80;;
62024;SDS011;47978;49.118;12.146;2022-08-04T11:36:02;3.53;;;2.25;;
62024;SDS011;47978;49.118;12.146;2022-08-04T11:38:43;3.47;;;2.00;;
62024;SDS011;47978;49.118;12.146;2022-08-04T11:41:18;4.82;;;2.30;;
62024;SDS011;47978;49.118;12.146;2022-08-04T11:43:49;5.85;;;1.90;;
62024;SDS011;47978;49.118;12.146;2022-08-04T11:46:29;4.73;;;1.93;;
62024;SDS011;47978;49.118;12.146;2022-08-04T11:49:00;6.57;;;2.60;;
62024;SDS011;47978;49.118;12.146;2022-08-04T11:51:32;2.55;;;2.10;;
62024;SDS011;47978;49.118;12.146;2022-08-04T11:54:02;5.32;;;2.17;;
62024;SDS011;47978;49.118;12.146;2022-08-04T11:56:29;5.25;;;2.10;;
62024;SDS011;47978;49.118;12.146;2022-08-04T11:59:03;5.53;;;2.08;;
62024;SDS011;47978;49.118;12.146;2022-08-04T12:01:33;4.32;;;1.80;;
62024;SDS011;47978;49.118;12.146;2022-08-04T12:04:10;2.70;;;1.85;;
62024;SDS011;47978;49.118;12.146;2022-08-04T12:06:44;2.10;;;1.77;;
62024;SDS011;47978;49.118;12.146;2022-08-04T12:09:38;4.53;;;1.80;;
62024;SDS011;47978;49.118;12.146;2022-08-04T12:12:13;3.30;;;2.40;;
62024;SDS011;47978;49.118;12.146;2022-08-04T12:14:48;3.70;;;1.88;;
62024;SDS011;47978;49.118;12.146;2022-08-04T12:17:24;2.67;;;1.90;;
62024;SDS011;47978;49.118;12.146;2022-08-04T12:20:17;2.13;;;1.60;;
62024;SDS011;47978;49.118;12.146;2022-08-04T12:23:05;3.10;;;2.10;;
62024;SDS011;47978;49.118;12.146;2022-08-04T12:25:43;3.00;;;1.92;;
62024;SDS011;47978;49.118;12.146;2022-08-04T12:28:14;2.92;;;1.88;;
62024;SDS011;47978;49.118;12.146;2022-08-04T12:30:48;2.20;;;1.60;;
62024;SDS011;47978;49.118;12.146;2022-08-04T12:33:30;2.80;;;1.73;;
62024;SDS011;47978;49.118;12.146;2022-08-04T12:36:26;2.15;;;1.80;;
62024;SDS011;47978;49.118;12.146;2022-08-04T12:38:58;4.15;;;1.88;;
62024;SDS011;47978;49.118;12.146;2022-08-04T12:41:34;2.67;;;1.55;;
62024;SDS011;47978;49.118;12.146;2022-08-04T12:44:06;2.60;;;1.60;;
62024;SDS011;47978;49.118;12.146;2022-08-04T12:46:55;2.53;;;1.85;;
62024;SDS011;47978;49.118;12.146;2022-08-04T12:49:44;2.65;;;1.88;;
62024;SDS011;47978;49.118;12.146;2022-08-04T12:52:26;2.53;;;1.83;;
62024;SDS011;47978;49.118;12.146;2022-08-04T12:55:14;6.18;;;1.70;;
62024;SDS011;47978;49.118;12.146;2022-08-04T12:57:43;4.15;;;1.67;;
62024;SDS011;47978;49.118;12.146;2022-08-04T13:00:12;5.90;;;2.03;;
62024;SDS011;47978;49.118;12.146;2022-08-04T13:02:57;5.50;;;2.33;;
62024;SDS011;47978;49.118;12.146;2022-08-04T13:05:29;6.97;;;1.95;;
62024;SDS011;47978;49.118;12.146;2022-08-04T13:07:58;2.50;;;1.63;;
62024;SDS011;47978;49.118;12.146;2022-08-04T13:10:28;4.35;;;1.88;;
62024;SDS011;47978;49.118;12.146;2022-08-04T13:12:58;3.30;;;1.80;;
62024;SDS011;47978;49.118;12.146;2022-08-04T13:15:26;2.60;;;1.65;;
62024;SDS011;47978;49.118;12.146;2022-08-04T13:17:54;2.90;;;2.00;;
62024;SDS011;47978;49.118;12.146;2022-08-04T13:20:25;3.63;;;1.90;;
62024;SDS011;47978;49.118;12.146;2022-08-04T13:22:57;2.92;;;1.80;;
62024;SDS011;47978;49.118;12.146;2022-08-04T13:25:26;3.30;;;1.85;;
62024;SDS011;47978;49.118;12.146;2022-08-04T13:28:18;3.05;;;1.75;;
62024;SDS011;47978;49.118;12.146;2022-08-04T13:30:47;3.45;;;1.85;;
62024;SDS011;47978;49.118;12.146;2022-08-04T13:33:19;3.25;;;1.80;;
62024;SDS011;47978;49.118;12.146;2022-08-04T13:35:47;2.28;;;2.00;;
62024;SDS011;47978;49.118;12.146;2022-08-04T13:38:21;3.17;;;2.00;;
62024;SDS011;47978;49.118;12.146;2022-08-04T13:40:50;2.67;;;1.85;;
62024;SDS011;47978;49.118;12.146;2022-08-04T13:43:23;4.95;;;2.20;;
62024;SDS011;47978;49.118;12.146;2022-08-04T13:46:13;2.60;;;1.88;;
62024;SDS011;47978;49.118;12.146;2022-08-04T13:48:54;3.83;;;1.92;;
62024;SDS011;47978;49.118;12.146;2022-08-04T13:51:45;3.40;;;1.88;;
62024;SDS011;47978;49.118;12.146;2022-08-04T13:56:52;3.45;;;2.00;;
62024;SDS011;47978;49.118;12.146;2022-08-04T13:59:25;2.08;;;1.75;;
62024;SDS011;47978;49.118;12.146;2022-08-04T14:02:00;3.50;;;1.80;;
62024;SDS011;47978;49.118;12.146;2022-08-04T14:07:01;4.22;;;1.63;;
62024;SDS011;47978;49.118;12.146;2022-08-04T14:09:45;3.58;;;1.80;;
62024;SDS011;47978;49.118;12.146;2022-08-04T14:12:29;2.90;;;2.00;;
62024;SDS011;47978;49.118;12.146;2022-08-04T14:18:23;2.40;;;1.80;;
62024;SDS011;47978;49.118;12.146;2022-08-04T14:20:58;2.70;;;1.77;;
62024;SDS011;47978;49.118;12.146;2022-08-04T14:23:26;3.88;;;1.80;;
62024;SDS011;47978;49.118;12.146;2022-08-04T14:25:58;2.55;;;1.90;;
62024;SDS011;47978;49.118;12.146;2022-08-04T14:28:26;1.80;;;1.50;;
62024;SDS011;47978;49.118;12.146;2022-08-04T14:31:15;2.10;;;1.80;;
62024;SDS011;47978;49.118;12.146;2022-08-04T14:33:44;3.03;;;2.03;;
62024;SDS011;47978;49.118;12.146;2022-08-04T14:36:37;5.38;;;2.33;;
62024;SDS011;47978;49.118;12.146;2022-08-04T14:39:37;2.70;;;2.00;;
62024;SDS011;47978;49.118;12.146;2022-08-04T14:42:04;3.25;;;1.77;;
62024;SDS011;47978;49.118;12.146;2022-08-04T14:44:31;6.15;;;1.77;;
62024;SDS011;47978;49.118;12.146;2022-08-04T14:47:19;5.28;;;1.90;;
62024;SDS011;47978;49.118;12.146;2022-08-04T14:50:04;8.05;;;2.17;;
62024;SDS011;47978;49.118;12.146;2022-08-04T14:52:34;2.90;;;1.70;;
62024;SDS011;47978;49.118;12.146;2022-08-04T14:55:14;4.32;;;2.28;;
62024;SDS011;47978;49.118;12.146;2022-08-04T14:57:41;3.55;;;1.70;;
62024;SDS011;47978;49.118;12.146;2022-08-04T15:00:29;2.17;;;1.73;;
62024;SDS011;47978;49.118;12.146;2022-08-04T15:03:01;4.75;;;1.92;;
62024;SDS011;47978;49.118;12.146;2022-08-04T15:05:29;3.65;;;2.42;;
62024;SDS011;47978;49.118;12.146;2022-08-04T15:08:16;6.50;;;2.20;;
62024;SDS011;47978;49.118;12.146;2022-08-04T15:10:43;8.85;;;2.50;;
62024;SDS011;47978;49.118;12.146;2022-08-04T15:13:10;2.97;;;1.60;;
62024;SDS011;47978;49.118;12.146;2022-08-04T15:15:38;4.65;;;2.33;;
62024;SDS011;47978;49.118;12.146;2022-08-04T15:18:07;3.53;;;1.95;;
62024;SDS011;47978;49.118;12.146;2022-08-04T15:20:35;6.25;;;2.05;;
62024;SDS011;47978;49.118;12.146;2022-08-04T15:23:02;2.53;;;1.65;;
62024;SDS011;47978;49.118;12.146;2022-08-04T15:25:36;6.05;;;1.90;;
62024;SDS011;47978;49.118;12.146;2022-08-04T15:28:04;3.92;;;1.85;;
62024;SDS011;47978;49.118;12.146;2022-08-04T15:30:36;7.72;;;2.00;;
62024;SDS011;47978;49.118;12.146;2022-08-04T15:33:03;2.60;;;1.90;;
62024;SDS011;47978;49.118;12.146;2022-08-04T15:35:32;3.47;;;1.83;;
62024;SDS011;47978;49.118;12.146;2022-08-04T15:38:05;2.30;;;2.00;;
62024;SDS011;47978;49.118;12.146;2022-08-04T15:40:42;4.15;;;2.00;;
62024;SDS011;47978;49.118;12.146;2022-08-04T15:43:21;3.78;;;2.20;;
62024;SDS011;47978;49.118;12.146;2022-08-04T15:46:05;2.60;;;2.15;;
62024;SDS011;47978;49.118;12.146;2022-08-04T15:48:52;4.57;;;2.45;;
62024;SDS011;47978;49.118;12.146;2022-08-04T15:51:26;6.75;;;2.53;;
62024;SDS011;47978;49.118;12.146;2022-08-04T15:56:57;3.45;;;2.17;;
62024;SDS011;47978;49.118;12.146;2022-08-04T16:02:28;2.78;;;2.10;;
62024;SDS011;47978;49.118;12.146;2022-08-04T16:07:56;4.00;;;2.05;;
62024;SDS011;47978;49.118;12.146;2022-08-04T16:13:15;4.20;;;1.98;;
62024;SDS011;47978;49.118;12.146;2022-08-04T16:15:45;2.80;;;1.85;;
62024;SDS011;47978;49.118;12.146;2022-08-04T16:18:18;8.55;;;2.03;;
62024;SDS011;47978;49.118;12.146;2022-08-04T16:20:52;2.58;;;2.10;;
62024;SDS011;47978;49.118;12.146;2022-08-04T16:26:46;2.80;;;1.90;;
62024;SDS011;47978;49.118;12.146;2022-08-04T16:29:24;2.25;;;1.70;;